Terminal Aerodrome Forecast
Issued by NWS Sioux Falls, SD

Home | Current Version | Previous Version | Text Only | Print | Product List | Glossary On
Versions: 1 2 3 4 5 6 7 8 9 10 11 12 13
000
FTUS43 KFSD 061120
TAFHON
TAF
KHON 061120Z 0612/0712 18010KT P6SM FEW250 WS020/21040KT
     FM061330 21012KT P6SM FEW250
     FM062100 VRB05KT P6SM SCT200
     FM070000 01012KT P6SM VCSH SCT250
     FM070400 04012KT P6SM BKN200=

USA.gov is the U.S. government's official web portal to all federal, state and local government web resources and services.